sensor_id;sensor_type;location;lat;lon;timestamp;temperature;humidity
21559;DHT22;10940;48.890;8.240;2022-11-23T00:00:55;7.40;99.90
21559;DHT22;10940;48.890;8.240;2022-11-23T00:03:20;7.40;99.90
21559;DHT22;10940;48.890;8.240;2022-11-23T00:05:46;7.30;99.90
21559;DHT22;10940;48.890;8.240;2022-11-23T00:08:11;7.30;99.90
21559;DHT22;10940;48.890;8.240;2022-11-23T00:10:37;7.30;99.90
21559;DHT22;10940;48.890;8.240;2022-11-23T00:13:03;7.30;99.90
21559;DHT22;10940;48.890;8.240;2022-11-23T00:15:28;7.30;99.90
21559;DHT22;10940;48.890;8.240;2022-11-23T00:17:54;7.20;99.90
21559;DHT22;10940;48.890;8.240;2022-11-23T00:20:19;7.30;99.90
21559;DHT22;10940;48.890;8.240;2022-11-23T00:22:45;7.30;99.90
21559;DHT22;10940;48.890;8.240;2022-11-23T00:25:10;7.30;99.90
21559;DHT22;10940;48.890;8.240;2022-11-23T00:27:36;7.30;99.90
21559;DHT22;10940;48.890;8.240;2022-11-23T00:30:02;7.40;99.90
21559;DHT22;10940;48.890;8.240;2022-11-23T00:32:28;7.40;99.90
21559;DHT22;10940;48.890;8.240;2022-11-23T00:34:54;7.50;99.90
21559;DHT22;10940;48.890;8.240;2022-11-23T00:37:19;7.50;99.90
21559;DHT22;10940;48.890;8.240;2022-11-23T00:39:45;7.40;99.90
21559;DHT22;10940;48.890;8.240;2022-11-23T00:42:10;7.40;99.90
21559;DHT22;10940;48.890;8.240;2022-11-23T00:44:36;7.40;99.90
21559;DHT22;10940;48.890;8.240;2022-11-23T00:47:02;7.40;99.90
21559;DHT22;10940;48.890;8.240;2022-11-23T00:49:27;7.30;99.90
21559;DHT22;10940;48.890;8.240;2022-11-23T00:51:53;7.30;99.90
21559;DHT22;10940;48.890;8.240;2022-11-23T00:54:18;7.40;99.90
21559;DHT22;10940;48.890;8.240;2022-11-23T00:56:44;7.30;99.90
21559;DHT22;10940;48.890;8.240;2022-11-23T00:59:09;7.30;99.90
21559;DHT22;10940;48.890;8.240;2022-11-23T01:01:35;7.30;99.90
21559;DHT22;10940;48.890;8.240;2022-11-23T01:04:03;7.30;99.90
21559;DHT22;10940;48.890;8.240;2022-11-23T01:06:40;7.30;99.90
21559;DHT22;10940;48.890;8.240;2022-11-23T01:09:10;7.30;99.90
21559;DHT22;10940;48.890;8.240;2022-11-23T01:11:37;7.30;99.90
21559;DHT22;10940;48.890;8.240;2022-11-23T01:14:03;7.30;99.90
21559;DHT22;10940;48.890;8.240;2022-11-23T01:16:35;7.30;99.90
21559;DHT22;10940;48.890;8.240;2022-11-23T01:19:04;7.30;99.90
21559;DHT22;10940;48.890;8.240;2022-11-23T01:21:31;7.30;99.90
21559;DHT22;10940;48.890;8.240;2022-11-23T01:23:57;7.20;99.90
21559;DHT22;10940;48.890;8.240;2022-11-23T01:26:23;7.20;99.90
21559;DHT22;10940;48.890;8.240;2022-11-23T01:28:49;7.20;99.90
21559;DHT22;10940;48.890;8.240;2022-11-23T01:31:24;7.20;99.90
21559;DHT22;10940;48.890;8.240;2022-11-23T01:33:54;7.20;99.90
21559;DHT22;10940;48.890;8.240;2022-11-23T01:36:22;7.20;99.90
21559;DHT22;10940;48.890;8.240;2022-11-23T01:38:49;7.20;99.90
21559;DHT22;10940;48.890;8.240;2022-11-23T01:41:21;7.40;99.90
21559;DHT22;10940;48.890;8.240;2022-11-23T01:43:48;7.40;99.90
21559;DHT22;10940;48.890;8.240;2022-11-23T01:46:13;7.50;99.90
21559;DHT22;10940;48.890;8.240;2022-11-23T01:51:14;7.50;99.90
21559;DHT22;10940;48.890;8.240;2022-11-23T01:53:41;7.50;99.90
21559;DHT22;10940;48.890;8.240;2022-11-23T01:56:10;7.60;99.90
21559;DHT22;10940;48.890;8.240;2022-11-23T01:58:42;7.70;99.90
21559;DHT22;10940;48.890;8.240;2022-11-23T02:01:08;7.70;99.90
21559;DHT22;10940;48.890;8.240;2022-11-23T02:03:36;7.70;99.90
21559;DHT22;10940;48.890;8.240;2022-11-23T02:06:06;7.70;99.90
21559;DHT22;10940;48.890;8.240;2022-11-23T02:08:34;7.70;99.90
21559;DHT22;10940;48.890;8.240;2022-11-23T02:11:00;7.80;99.90
21559;DHT22;10940;48.890;8.240;2022-11-23T02:13:27;7.80;99.90
21559;DHT22;10940;48.890;8.240;2022-11-23T02:15:54;7.80;99.90
21559;DHT22;10940;48.890;8.240;2022-11-23T02:18:22;7.80;99.90
21559;DHT22;10940;48.890;8.240;2022-11-23T02:20:49;7.80;99.90
21559;DHT22;10940;48.890;8.240;2022-11-23T02:23:30;7.80;99.90
21559;DHT22;10940;48.890;8.240;2022-11-23T02:26:00;7.80;99.90
21559;DHT22;10940;48.890;8.240;2022-11-23T02:28:32;7.80;99.90
21559;DHT22;10940;48.890;8.240;2022-11-23T02:30:58;7.80;99.90
21559;DHT22;10940;48.890;8.240;2022-11-23T02:33:24;7.70;99.90
21559;DHT22;10940;48.890;8.240;2022-11-23T02:35:52;7.70;99.90
21559;DHT22;10940;48.890;8.240;2022-11-23T02:38:19;7.70;99.90
21559;DHT22;10940;48.890;8.240;2022-11-23T02:40:45;7.60;99.90
21559;DHT22;10940;48.890;8.240;2022-11-23T02:43:10;7.70;99.90
21559;DHT22;10940;48.890;8.240;2022-11-23T02:45:53;7.60;99.90
21559;DHT22;10940;48.890;8.240;2022-11-23T02:48:19;7.60;99.90
21559;DHT22;10940;48.890;8.240;2022-11-23T02:50:45;7.60;99.90
21559;DHT22;10940;48.890;8.240;2022-11-23T02:53:11;7.50;99.90
21559;DHT22;10940;48.890;8.240;2022-11-23T02:55:37;7.50;99.90
21559;DHT22;10940;48.890;8.240;2022-11-23T02:58:04;7.50;99.90
21559;DHT22;10940;48.890;8.240;2022-11-23T03:00:30;7.50;99.90
21559;DHT22;10940;48.890;8.240;2022-11-23T03:02:57;7.50;99.90
21559;DHT22;10940;48.890;8.240;2022-11-23T03:05:25;7.50;99.90
21559;DHT22;10940;48.890;8.240;2022-11-23T03:07:50;7.40;99.90
21559;DHT22;10940;48.890;8.240;2022-11-23T03:10:17;7.30;99.90
21559;DHT22;10940;48.890;8.240;2022-11-23T03:12:42;7.20;99.90
21559;DHT22;10940;48.890;8.240;2022-11-23T03:15:08;7.20;99.90
21559;DHT22;10940;48.890;8.240;2022-11-23T03:17:34;7.10;99.90
21559;DHT22;10940;48.890;8.240;2022-11-23T03:20:00;7.00;99.90
21559;DHT22;10940;48.890;8.240;2022-11-23T03:22:25;7.00;99.90
21559;DHT22;10940;48.890;8.240;2022-11-23T03:24:51;7.00;99.90
21559;DHT22;10940;48.890;8.240;2022-11-23T03:27:17;6.80;99.90
21559;DHT22;10940;48.890;8.240;2022-11-23T03:29:43;6.90;99.90
21559;DHT22;10940;48.890;8.240;2022-11-23T03:32:08;6.90;99.90
21559;DHT22;10940;48.890;8.240;2022-11-23T03:34:34;6.90;99.90
21559;DHT22;10940;48.890;8.240;2022-11-23T03:37:00;6.90;99.90
21559;DHT22;10940;48.890;8.240;2022-11-23T03:39:25;6.90;99.90
21559;DHT22;10940;48.890;8.240;2022-11-23T03:41:51;6.90;99.90
21559;DHT22;10940;48.890;8.240;2022-11-23T03:44:16;6.80;99.90
21559;DHT22;10940;48.890;8.240;2022-11-23T03:46:42;6.80;99.90
21559;DHT22;10940;48.890;8.240;2022-11-23T03:49:07;6.80;99.90
21559;DHT22;10940;48.890;8.240;2022-11-23T03:51:33;6.80;99.90
21559;DHT22;10940;48.890;8.240;2022-11-23T03:53:59;6.80;99.90
21559;DHT22;10940;48.890;8.240;2022-11-23T03:56:24;6.70;99.90
21559;DHT22;10940;48.890;8.240;2022-11-23T03:58:50;6.60;99.90
21559;DHT22;10940;48.890;8.240;2022-11-23T04:01:16;6.60;99.90
21559;DHT22;10940;48.890;8.240;2022-11-23T04:03:41;6.50;99.90
21559;DHT22;10940;48.890;8.240;2022-11-23T04:06:07;6.50;99.90
21559;DHT22;10940;48.890;8.240;2022-11-23T04:08:32;6.40;99.90
21559;DHT22;10940;48.890;8.240;2022-11-23T04:10:58;6.30;99.90
21559;DHT22;10940;48.890;8.240;2022-11-23T04:13:24;6.20;99.90
21559;DHT22;10940;48.890;8.240;2022-11-23T04:15:50;6.20;99.90
21559;DHT22;10940;48.890;8.240;2022-11-23T04:18:15;6.20;99.90
21559;DHT22;10940;48.890;8.240;2022-11-23T04:20:41;6.20;99.90
21559;DHT22;10940;48.890;8.240;2022-11-23T04:23:07;6.20;99.90
21559;DHT22;10940;48.890;8.240;2022-11-23T04:25:32;6.10;99.90
21559;DHT22;10940;48.890;8.240;2022-11-23T04:27:58;6.10;99.90
21559;DHT22;10940;48.890;8.240;2022-11-23T04:30:23;6.10;99.90
21559;DHT22;10940;48.890;8.240;2022-11-23T04:32:49;6.10;99.90
21559;DHT22;10940;48.890;8.240;2022-11-23T04:35:15;6.10;99.90
21559;DHT22;10940;48.890;8.240;2022-11-23T04:37:40;6.10;99.90
21559;DHT22;10940;48.890;8.240;2022-11-23T04:40:06;6.10;99.90
21559;DHT22;10940;48.890;8.240;2022-11-23T04:42:32;6.10;99.90
21559;DHT22;10940;48.890;8.240;2022-11-23T04:44:58;6.00;99.90
21559;DHT22;10940;48.890;8.240;2022-11-23T04:47:24;6.00;99.90
21559;DHT22;10940;48.890;8.240;2022-11-23T04:49:50;6.00;99.90
21559;DHT22;10940;48.890;8.240;2022-11-23T04:52:15;5.90;99.90
21559;DHT22;10940;48.890;8.240;2022-11-23T04:54:41;5.90;99.90
21559;DHT22;10940;48.890;8.240;2022-11-23T04:57:07;5.90;99.90
21559;DHT22;10940;48.890;8.240;2022-11-23T04:59:32;5.80;99.90
21559;DHT22;10940;48.890;8.240;2022-11-23T05:01:58;5.80;99.90
21559;DHT22;10940;48.890;8.240;2022-11-23T05:04:23;5.80;99.90
21559;DHT22;10940;48.890;8.240;2022-11-23T05:06:49;5.80;99.90
21559;DHT22;10940;48.890;8.240;2022-11-23T05:09:15;5.70;99.90
21559;DHT22;10940;48.890;8.240;2022-11-23T05:11:40;5.60;99.90
21559;DHT22;10940;48.890;8.240;2022-11-23T05:14:06;5.50;99.90
21559;DHT22;10940;48.890;8.240;2022-11-23T05:16:32;5.50;99.90
21559;DHT22;10940;48.890;8.240;2022-11-23T05:18:57;5.50;99.90
21559;DHT22;10940;48.890;8.240;2022-11-23T05:21:23;5.40;99.90
21559;DHT22;10940;48.890;8.240;2022-11-23T05:23:48;5.30;99.90
21559;DHT22;10940;48.890;8.240;2022-11-23T05:26:14;5.20;99.90
21559;DHT22;10940;48.890;8.240;2022-11-23T05:28:39;5.20;99.90
21559;DHT22;10940;48.890;8.240;2022-11-23T05:31:05;5.20;99.90
21559;DHT22;10940;48.890;8.240;2022-11-23T05:33:31;5.20;99.90
21559;DHT22;10940;48.890;8.240;2022-11-23T05:35:57;5.20;99.90
21559;DHT22;10940;48.890;8.240;2022-11-23T05:38:22;5.10;99.90
21559;DHT22;10940;48.890;8.240;2022-11-23T05:40:48;5.10;99.90
21559;DHT22;10940;48.890;8.240;2022-11-23T05:43:13;5.00;99.90
21559;DHT22;10940;48.890;8.240;2022-11-23T05:45:39;5.00;99.90
21559;DHT22;10940;48.890;8.240;2022-11-23T05:48:05;5.00;99.90
21559;DHT22;10940;48.890;8.240;2022-11-23T05:50:30;5.00;99.90
21559;DHT22;10940;48.890;8.240;2022-11-23T05:52:57;5.00;99.90
21559;DHT22;10940;48.890;8.240;2022-11-23T05:55:24;5.00;99.90
21559;DHT22;10940;48.890;8.240;2022-11-23T05:57:50;5.00;99.90
21559;DHT22;10940;48.890;8.240;2022-11-23T06:00:16;5.00;99.90
21559;DHT22;10940;48.890;8.240;2022-11-23T06:02:42;5.00;99.90
21559;DHT22;10940;48.890;8.240;2022-11-23T06:05:08;5.00;99.90
21559;DHT22;10940;48.890;8.240;2022-11-23T06:07:34;5.00;99.90
21559;DHT22;10940;48.890;8.240;2022-11-23T06:10:00;5.00;99.90
21559;DHT22;10940;48.890;8.240;2022-11-23T06:12:29;5.00;99.90
21559;DHT22;10940;48.890;8.240;2022-11-23T06:14:55;5.00;99.90
21559;DHT22;10940;48.890;8.240;2022-11-23T06:17:20;4.90;99.90
21559;DHT22;10940;48.890;8.240;2022-11-23T06:19:46;4.90;99.90
21559;DHT22;10940;48.890;8.240;2022-11-23T06:22:12;4.90;99.90
21559;DHT22;10940;48.890;8.240;2022-11-23T06:24:39;4.90;99.90
21559;DHT22;10940;48.890;8.240;2022-11-23T06:27:05;4.90;99.90
21559;DHT22;10940;48.890;8.240;2022-11-23T06:29:31;4.80;99.90
21559;DHT22;10940;48.890;8.240;2022-11-23T06:31:56;4.80;99.90
21559;DHT22;10940;48.890;8.240;2022-11-23T06:34:22;4.80;99.90
21559;DHT22;10940;48.890;8.240;2022-11-23T06:36:48;4.70;99.90
21559;DHT22;10940;48.890;8.240;2022-11-23T06:39:13;4.70;99.90
21559;DHT22;10940;48.890;8.240;2022-11-23T06:41:39;4.70;99.90
21559;DHT22;10940;48.890;8.240;2022-11-23T06:44:04;4.60;99.90
21559;DHT22;10940;48.890;8.240;2022-11-23T06:46:31;4.50;99.90
21559;DHT22;10940;48.890;8.240;2022-11-23T06:48:56;4.50;99.90
21559;DHT22;10940;48.890;8.240;2022-11-23T06:51:22;4.40;99.90
21559;DHT22;10940;48.890;8.240;2022-11-23T06:53:48;4.40;99.90
21559;DHT22;10940;48.890;8.240;2022-11-23T06:56:14;4.40;99.90
21559;DHT22;10940;48.890;8.240;2022-11-23T06:58:39;4.40;99.90
21559;DHT22;10940;48.890;8.240;2022-11-23T07:01:07;4.40;99.90
21559;DHT22;10940;48.890;8.240;2022-11-23T07:03:33;4.40;99.90
21559;DHT22;10940;48.890;8.240;2022-11-23T07:06:06;4.40;99.90
21559;DHT22;10940;48.890;8.240;2022-11-23T07:08:34;4.40;99.90
21559;DHT22;10940;48.890;8.240;2022-11-23T07:11:03;4.40;99.90
21559;DHT22;10940;48.890;8.240;2022-11-23T07:13:31;4.50;99.90
21559;DHT22;10940;48.890;8.240;2022-11-23T07:15:57;4.40;99.90
21559;DHT22;10940;48.890;8.240;2022-11-23T07:18:24;4.50;99.90
21559;DHT22;10940;48.890;8.240;2022-11-23T07:20:49;4.50;99.90
21559;DHT22;10940;48.890;8.240;2022-11-23T07:23:15;4.50;99.90
21559;DHT22;10940;48.890;8.240;2022-11-23T07:25:41;4.60;99.90
21559;DHT22;10940;48.890;8.240;2022-11-23T07:28:07;4.70;99.90
21559;DHT22;10940;48.890;8.240;2022-11-23T07:30:34;4.70;99.90
21559;DHT22;10940;48.890;8.240;2022-11-23T07:33:08;4.80;99.90
21559;DHT22;10940;48.890;8.240;2022-11-23T07:35:35;4.90;99.90
21559;DHT22;10940;48.890;8.240;2022-11-23T07:38:01;5.00;99.90
21559;DHT22;10940;48.890;8.240;2022-11-23T07:40:27;5.00;99.90
21559;DHT22;10940;48.890;8.240;2022-11-23T07:42:59;5.20;99.90
21559;DHT22;10940;48.890;8.240;2022-11-23T07:45:25;5.30;99.90
21559;DHT22;10940;48.890;8.240;2022-11-23T07:48:02;5.50;99.90
21559;DHT22;10940;48.890;8.240;2022-11-23T07:50:28;5.60;99.90
21559;DHT22;10940;48.890;8.240;2022-11-23T07:52:54;5.70;99.90
21559;DHT22;10940;48.890;8.240;2022-11-23T07:55:20;5.70;99.90
21559;DHT22;10940;48.890;8.240;2022-11-23T07:57:46;5.80;99.90
21559;DHT22;10940;48.890;8.240;2022-11-23T08:00:12;5.90;99.90
21559;DHT22;10940;48.890;8.240;2022-11-23T08:02:38;5.90;99.90
21559;DHT22;10940;48.890;8.240;2022-11-23T08:05:05;6.00;99.90
21559;DHT22;10940;48.890;8.240;2022-11-23T08:07:30;6.10;99.90
21559;DHT22;10940;48.890;8.240;2022-11-23T08:09:56;6.20;99.90
21559;DHT22;10940;48.890;8.240;2022-11-23T08:12:21;6.30;99.90
21559;DHT22;10940;48.890;8.240;2022-11-23T08:14:47;6.40;99.90
21559;DHT22;10940;48.890;8.240;2022-11-23T08:17:12;6.50;99.90
21559;DHT22;10940;48.890;8.240;2022-11-23T08:19:38;6.50;99.90
21559;DHT22;10940;48.890;8.240;2022-11-23T08:22:04;6.60;99.90
21559;DHT22;10940;48.890;8.240;2022-11-23T08:24:29;6.70;99.90
21559;DHT22;10940;48.890;8.240;2022-11-23T08:26:55;6.80;99.90
21559;DHT22;10940;48.890;8.240;2022-11-23T08:29:21;7.00;99.90
21559;DHT22;10940;48.890;8.240;2022-11-23T08:31:46;7.00;99.90
21559;DHT22;10940;48.890;8.240;2022-11-23T08:34:12;7.10;99.90
21559;DHT22;10940;48.890;8.240;2022-11-23T08:36:38;7.20;99.90
21559;DHT22;10940;48.890;8.240;2022-11-23T08:39:04;7.20;99.90
21559;DHT22;10940;48.890;8.240;2022-11-23T08:41:29;7.30;99.90
21559;DHT22;10940;48.890;8.240;2022-11-23T08:43:55;7.40;99.90
21559;DHT22;10940;48.890;8.240;2022-11-23T08:46:21;7.50;99.90
21559;DHT22;10940;48.890;8.240;2022-11-23T08:48:46;7.60;99.90
21559;DHT22;10940;48.890;8.240;2022-11-23T08:51:12;7.70;99.90
21559;DHT22;10940;48.890;8.240;2022-11-23T08:53:38;7.80;99.90
21559;DHT22;10940;48.890;8.240;2022-11-23T08:56:05;7.90;99.90
21559;DHT22;10940;48.890;8.240;2022-11-23T08:58:31;7.90;99.90
21559;DHT22;10940;48.890;8.240;2022-11-23T09:00:57;8.00;99.90
21559;DHT22;10940;48.890;8.240;2022-11-23T09:03:23;8.10;99.90
21559;DHT22;10940;48.890;8.240;2022-11-23T09:05:48;8.10;99.90
21559;DHT22;10940;48.890;8.240;2022-11-23T09:08:15;8.20;99.90
21559;DHT22;10940;48.890;8.240;2022-11-23T09:10:41;8.30;99.90
21559;DHT22;10940;48.890;8.240;2022-11-23T09:13:07;8.40;99.90
21559;DHT22;10940;48.890;8.240;2022-11-23T09:15:32;8.50;99.90
21559;DHT22;10940;48.890;8.240;2022-11-23T09:17:58;8.50;99.90
21559;DHT22;10940;48.890;8.240;2022-11-23T09:20:24;8.70;99.90
21559;DHT22;10940;48.890;8.240;2022-11-23T09:22:53;8.80;99.90
21559;DHT22;10940;48.890;8.240;2022-11-23T09:25:20;8.80;99.90
21559;DHT22;10940;48.890;8.240;2022-11-23T09:27:46;8.80;99.90
21559;DHT22;10940;48.890;8.240;2022-11-23T09:30:13;8.90;99.90
21559;DHT22;10940;48.890;8.240;2022-11-23T09:32:39;9.00;99.90
21559;DHT22;10940;48.890;8.240;2022-11-23T09:35:05;9.00;99.90
21559;DHT22;10940;48.890;8.240;2022-11-23T09:37:31;9.10;99.90
21559;DHT22;10940;48.890;8.240;2022-11-23T09:39:56;9.20;99.90
21559;DHT22;10940;48.890;8.240;2022-11-23T09:48:19;9.50;99.90
21559;DHT22;10940;48.890;8.240;2022-11-23T09:50:49;9.60;99.90
21559;DHT22;10940;48.890;8.240;2022-11-23T09:53:24;9.70;99.90
21559;DHT22;10940;48.890;8.240;2022-11-23T09:55:55;9.80;99.90
21559;DHT22;10940;48.890;8.240;2022-11-23T09:58:25;9.90;99.90
21559;DHT22;10940;48.890;8.240;2022-11-23T10:01:04;10.00;99.90
21559;DHT22;10940;48.890;8.240;2022-11-23T10:03:37;10.10;99.90
21559;DHT22;10940;48.890;8.240;2022-11-23T10:06:16;10.20;99.90
21559;DHT22;10940;48.890;8.240;2022-11-23T10:09:11;10.30;99.90
21559;DHT22;10940;48.890;8.240;2022-11-23T10:12:07;10.40;99.90
21559;DHT22;10940;48.890;8.240;2022-11-23T10:22:20;10.60;99.90
21559;DHT22;10940;48.890;8.240;2022-11-23T10:24:51;10.60;99.90
21559;DHT22;10940;48.890;8.240;2022-11-23T10:27:19;10.70;99.90
21559;DHT22;10940;48.890;8.240;2022-11-23T10:29:46;10.70;99.90
21559;DHT22;10940;48.890;8.240;2022-11-23T10:35:32;10.80;99.90
21559;DHT22;10940;48.890;8.240;2022-11-23T10:38:12;10.80;99.90
21559;DHT22;10940;48.890;8.240;2022-11-23T10:41:08;10.80;99.90
21559;DHT22;10940;48.890;8.240;2022-11-23T10:46:28;11.00;99.90
21559;DHT22;10940;48.890;8.240;2022-11-23T10:49:17;11.00;99.90
21559;DHT22;10940;48.890;8.240;2022-11-23T10:51:57;11.00;99.90
21559;DHT22;10940;48.890;8.240;2022-11-23T10:57:42;11.00;99.90
21559;DHT22;10940;48.890;8.240;2022-11-23T11:02:51;11.10;99.90
21559;DHT22;10940;48.890;8.240;2022-11-23T11:05:47;11.10;99.90
21559;DHT22;10940;48.890;8.240;2022-11-23T11:08:17;11.20;99.90
21559;DHT22;10940;48.890;8.240;2022-11-23T11:10:46;11.20;99.90
21559;DHT22;10940;48.890;8.240;2022-11-23T11:13:27;11.20;99.90
21559;DHT22;10940;48.890;8.240;2022-11-23T11:18:24;11.20;99.90
21559;DHT22;10940;48.890;8.240;2022-11-23T11:20:56;11.30;99.90
21559;DHT22;10940;48.890;8.240;2022-11-23T11:23:22;11.30;99.90
21559;DHT22;10940;48.890;8.240;2022-11-23T11:25:49;11.30;99.90
21559;DHT22;10940;48.890;8.240;2022-11-23T11:28:22;11.20;99.90
21559;DHT22;10940;48.890;8.240;2022-11-23T11:31:05;11.20;99.90
21559;DHT22;10940;48.890;8.240;2022-11-23T11:33:47;11.20;99.90
21559;DHT22;10940;48.890;8.240;2022-11-23T11:36:16;11.30;99.90
21559;DHT22;10940;48.890;8.240;2022-11-23T11:38:45;11.30;99.90
21559;DHT22;10940;48.890;8.240;2022-11-23T11:41:14;11.40;99.90
21559;DHT22;10940;48.890;8.240;2022-11-23T11:43:42;11.60;99.90
21559;DHT22;10940;48.890;8.240;2022-11-23T11:46:21;11.60;99.90
21559;DHT22;10940;48.890;8.240;2022-11-23T11:48:50;11.60;99.90
21559;DHT22;10940;48.890;8.240;2022-11-23T11:54:23;11.60;99.90
21559;DHT22;10940;48.890;8.240;2022-11-23T11:56:53;11.50;99.90
21559;DHT22;10940;48.890;8.240;2022-11-23T12:02:05;11.40;99.90
21559;DHT22;10940;48.890;8.240;2022-11-23T12:04:49;11.50;99.90
21559;DHT22;10940;48.890;8.240;2022-11-23T12:07:31;11.70;99.90
21559;DHT22;10940;48.890;8.240;2022-11-23T12:12:38;11.90;99.90
21559;DHT22;10940;48.890;8.240;2022-11-23T12:15:04;11.90;99.90
21559;DHT22;10940;48.890;8.240;2022-11-23T12:18:10;11.90;99.90
21559;DHT22;10940;48.890;8.240;2022-11-23T12:26:07;12.00;99.90
21559;DHT22;10940;48.890;8.240;2022-11-23T12:34:28;12.00;99.90
21559;DHT22;10940;48.890;8.240;2022-11-23T12:37:30;11.90;99.90
21559;DHT22;10940;48.890;8.240;2022-11-23T12:40:27;11.90;99.90
21559;DHT22;10940;48.890;8.240;2022-11-23T12:43:11;11.90;99.90
21559;DHT22;10940;48.890;8.240;2022-11-23T12:48:54;12.00;99.90
21559;DHT22;10940;48.890;8.240;2022-11-23T12:56:54;12.30;99.90
21559;DHT22;10940;48.890;8.240;2022-11-23T12:59:21;12.20;99.90
21559;DHT22;10940;48.890;8.240;2022-11-23T13:01:55;12.10;99.90
21559;DHT22;10940;48.890;8.240;2022-11-23T13:12:47;12.00;99.90
21559;DHT22;10940;48.890;8.240;2022-11-23T13:17:53;12.00;99.90
21559;DHT22;10940;48.890;8.240;2022-11-23T13:23:05;12.10;99.90
21559;DHT22;10940;48.890;8.240;2022-11-23T13:25:31;12.20;99.90
21559;DHT22;10940;48.890;8.240;2022-11-23T13:28:44;12.20;99.90
21559;DHT22;10940;48.890;8.240;2022-11-23T13:31:16;12.30;99.90
21559;DHT22;10940;48.890;8.240;2022-11-23T13:33:47;12.30;99.90
21559;DHT22;10940;48.890;8.240;2022-11-23T13:36:34;12.30;99.90
21559;DHT22;10940;48.890;8.240;2022-11-23T13:39:58;12.30;99.90
21559;DHT22;10940;48.890;8.240;2022-11-23T13:41:59;12.40;99.90
21559;DHT22;10940;48.890;8.240;2022-11-23T13:44:28;12.60;99.90
21559;DHT22;10940;48.890;8.240;2022-11-23T13:55:14;13.60;99.90
21559;DHT22;10940;48.890;8.240;2022-11-23T13:57:44;13.60;99.90
21559;DHT22;10940;48.890;8.240;2022-11-23T14:00:48;13.40;99.90
21559;DHT22;10940;48.890;8.240;2022-11-23T14:12:20;11.50;99.90
21559;DHT22;10940;48.890;8.240;2022-11-23T14:20:51;10.90;99.90
21559;DHT22;10940;48.890;8.240;2022-11-23T14:24:01;10.70;99.90
21559;DHT22;10940;48.890;8.240;2022-11-23T14:26:50;10.60;99.90
21559;DHT22;10940;48.890;8.240;2022-11-23T14:29:38;10.50;99.90
21559;DHT22;10940;48.890;8.240;2022-11-23T14:42:56;10.00;99.90
21559;DHT22;10940;48.890;8.240;2022-11-23T14:45:31;9.90;99.90
21559;DHT22;10940;48.890;8.240;2022-11-23T14:50:53;9.90;99.90
21559;DHT22;10940;48.890;8.240;2022-11-23T14:53:19;9.90;99.90
21559;DHT22;10940;48.890;8.240;2022-11-23T14:55:46;9.90;99.90
21559;DHT22;10940;48.890;8.240;2022-11-23T14:58:14;9.90;99.90
21559;DHT22;10940;48.890;8.240;2022-11-23T15:00:41;9.90;99.90
21559;DHT22;10940;48.890;8.240;2022-11-23T15:03:17;10.00;99.90
21559;DHT22;10940;48.890;8.240;2022-11-23T15:05:46;10.00;99.90
21559;DHT22;10940;48.890;8.240;2022-11-23T15:08:19;10.00;99.90
21559;DHT22;10940;48.890;8.240;2022-11-23T15:11:04;9.90;99.90
21559;DHT22;10940;48.890;8.240;2022-11-23T15:13:42;9.90;99.90
21559;DHT22;10940;48.890;8.240;2022-11-23T15:16:11;9.90;99.90
21559;DHT22;10940;48.890;8.240;2022-11-23T15:18:37;9.90;99.90
21559;DHT22;10940;48.890;8.240;2022-11-23T15:24:17;9.90;99.90
21559;DHT22;10940;48.890;8.240;2022-11-23T15:26:44;9.90;99.90
21559;DHT22;10940;48.890;8.240;2022-11-23T15:29:31;9.80;99.90
21559;DHT22;10940;48.890;8.240;2022-11-23T15:31:57;9.80;99.90
21559;DHT22;10940;48.890;8.240;2022-11-23T15:34:23;9.80;99.90
21559;DHT22;10940;48.890;8.240;2022-11-23T15:36:49;9.90;99.90
21559;DHT22;10940;48.890;8.240;2022-11-23T15:39:20;10.00;99.90
21559;DHT22;10940;48.890;8.240;2022-11-23T15:41:47;10.00;99.90
21559;DHT22;10940;48.890;8.240;2022-11-23T15:44:16;10.00;99.90
21559;DHT22;10940;48.890;8.240;2022-11-23T15:46:48;10.10;99.90
21559;DHT22;10940;48.890;8.240;2022-11-23T15:49:15;10.10;99.90
21559;DHT22;10940;48.890;8.240;2022-11-23T15:51:43;10.20;99.90
21559;DHT22;10940;48.890;8.240;2022-11-23T15:54:23;10.20;99.90
21559;DHT22;10940;48.890;8.240;2022-11-23T15:56:54;10.30;99.90
21559;DHT22;10940;48.890;8.240;2022-11-23T16:01:45;10.30;99.90
21559;DHT22;10940;48.890;8.240;2022-11-23T16:04:31;10.30;99.90
21559;DHT22;10940;48.890;8.240;2022-11-23T16:07:16;10.10;99.90
21559;DHT22;10940;48.890;8.240;2022-11-23T16:09:45;10.10;99.90
21559;DHT22;10940;48.890;8.240;2022-11-23T16:12:23;9.90;99.90
21559;DHT22;10940;48.890;8.240;2022-11-23T16:14:51;9.80;99.90
21559;DHT22;10940;48.890;8.240;2022-11-23T16:19:50;9.60;99.90
21559;DHT22;10940;48.890;8.240;2022-11-23T16:22:36;9.50;99.90
21559;DHT22;10940;48.890;8.240;2022-11-23T16:25:20;9.30;99.90
21559;DHT22;10940;48.890;8.240;2022-11-23T16:28:05;9.20;99.90
21559;DHT22;10940;48.890;8.240;2022-11-23T16:30:42;9.10;99.90
21559;DHT22;10940;48.890;8.240;2022-11-23T16:33:16;9.10;99.90
21559;DHT22;10940;48.890;8.240;2022-11-23T16:35:42;9.00;99.90
21559;DHT22;10940;48.890;8.240;2022-11-23T16:38:08;9.00;99.90
21559;DHT22;10940;48.890;8.240;2022-11-23T16:40:33;8.90;99.90
21559;DHT22;10940;48.890;8.240;2022-11-23T16:42:59;8.90;99.90
21559;DHT22;10940;48.890;8.240;2022-11-23T16:45:25;8.90;99.90
21559;DHT22;10940;48.890;8.240;2022-11-23T16:47:53;8.90;99.90
21559;DHT22;10940;48.890;8.240;2022-11-23T16:50:23;8.90;99.90
21559;DHT22;10940;48.890;8.240;2022-11-23T16:52:52;8.80;99.90
21559;DHT22;10940;48.890;8.240;2022-11-23T16:55:18;8.70;99.90
21559;DHT22;10940;48.890;8.240;2022-11-23T16:57:44;8.70;99.90
21559;DHT22;10940;48.890;8.240;2022-11-23T17:00:16;8.60;99.90
21559;DHT22;10940;48.890;8.240;2022-11-23T17:02:43;8.60;99.90
21559;DHT22;10940;48.890;8.240;2022-11-23T17:05:16;8.60;99.90
21559;DHT22;10940;48.890;8.240;2022-11-23T17:07:42;8.50;99.90
21559;DHT22;10940;48.890;8.240;2022-11-23T17:10:08;8.50;99.90
21559;DHT22;10940;48.890;8.240;2022-11-23T17:12:35;8.40;99.90
21559;DHT22;10940;48.890;8.240;2022-11-23T17:15:03;8.40;99.90
21559;DHT22;10940;48.890;8.240;2022-11-23T17:17:29;8.30;99.90
21559;DHT22;10940;48.890;8.240;2022-11-23T17:19:55;8.30;99.90
21559;DHT22;10940;48.890;8.240;2022-11-23T17:22:21;8.30;99.90
21559;DHT22;10940;48.890;8.240;2022-11-23T17:24:48;8.20;99.90
21559;DHT22;10940;48.890;8.240;2022-11-23T17:27:20;8.20;99.90
21559;DHT22;10940;48.890;8.240;2022-11-23T17:29:46;8.20;99.90
21559;DHT22;10940;48.890;8.240;2022-11-23T17:32:15;8.20;99.90
21559;DHT22;10940;48.890;8.240;2022-11-23T17:34:41;8.30;99.90
21559;DHT22;10940;48.890;8.240;2022-11-23T17:37:15;8.20;99.90
21559;DHT22;10940;48.890;8.240;2022-11-23T17:39:41;8.20;99.90
21559;DHT22;10940;48.890;8.240;2022-11-23T17:42:10;8.20;99.90
21559;DHT22;10940;48.890;8.240;2022-11-23T17:44:35;8.30;99.90
21559;DHT22;10940;48.890;8.240;2022-11-23T17:47:01;8.30;99.90
21559;DHT22;10940;48.890;8.240;2022-11-23T17:49:27;8.30;99.90
21559;DHT22;10940;48.890;8.240;2022-11-23T17:51:53;8.30;99.90